sensor_id;sensor_type;location;lat;lon;timestamp;P1;durP1;ratioP1;P2;durP2;ratioP2
6763;SDS011;47432;48.760;9.178;2022-12-20T00:01:15;15.53;;;7.30;;
6763;SDS011;47432;48.760;9.178;2022-12-20T00:03:48;13.90;;;6.30;;
6763;SDS011;47432;48.760;9.178;2022-12-20T00:06:16;14.40;;;7.10;;
6763;SDS011;47432;48.760;9.178;2022-12-20T00:08:45;17.37;;;7.33;;
6763;SDS011;47432;48.760;9.178;2022-12-20T00:11:16;14.60;;;6.83;;
6763;SDS011;47432;48.760;9.178;2022-12-20T00:13:44;14.00;;;6.40;;
6763;SDS011;47432;48.760;9.178;2022-12-20T00:16:14;14.80;;;7.40;;
6763;SDS011;47432;48.760;9.178;2022-12-20T00:18:44;15.73;;;6.63;;
6763;SDS011;47432;48.760;9.178;2022-12-20T00:21:11;13.40;;;6.43;;
6763;SDS011;47432;48.760;9.178;2022-12-20T00:23:40;13.27;;;6.30;;
6763;SDS011;47432;48.760;9.178;2022-12-20T00:26:10;12.53;;;6.17;;
6763;SDS011;47432;48.760;9.178;2022-12-20T00:28:39;14.50;;;6.53;;
6763;SDS011;47432;48.760;9.178;2022-12-20T00:31:09;14.60;;;6.80;;
6763;SDS011;47432;48.760;9.178;2022-12-20T00:33:37;14.43;;;7.70;;
6763;SDS011;47432;48.760;9.178;2022-12-20T00:36:04;18.20;;;9.20;;
6763;SDS011;47432;48.760;9.178;2022-12-20T00:38:31;13.10;;;6.90;;
6763;SDS011;47432;48.760;9.178;2022-12-20T00:41:05;14.93;;;6.90;;
6763;SDS011;47432;48.760;9.178;2022-12-20T00:43:34;13.70;;;6.90;;
6763;SDS011;47432;48.760;9.178;2022-12-20T00:46:01;13.63;;;6.97;;
6763;SDS011;47432;48.760;9.178;2022-12-20T00:48:28;15.93;;;8.60;;
6763;SDS011;47432;48.760;9.178;2022-12-20T00:50:59;14.60;;;7.27;;
6763;SDS011;47432;48.760;9.178;2022-12-20T00:53:31;15.00;;;7.20;;
6763;SDS011;47432;48.760;9.178;2022-12-20T00:56:00;14.47;;;7.70;;
6763;SDS011;47432;48.760;9.178;2022-12-20T00:58:28;16.40;;;8.37;;
6763;SDS011;47432;48.760;9.178;2022-12-20T01:00:56;15.77;;;6.87;;
6763;SDS011;47432;48.760;9.178;2022-12-20T01:03:24;15.27;;;8.30;;
6763;SDS011;47432;48.760;9.178;2022-12-20T01:05:58;13.63;;;7.47;;
6763;SDS011;47432;48.760;9.178;2022-12-20T01:08:26;14.80;;;8.73;;
6763;SDS011;47432;48.760;9.178;2022-12-20T01:13:28;17.70;;;9.40;;
6763;SDS011;47432;48.760;9.178;2022-12-20T01:16:32;17.93;;;8.93;;
6763;SDS011;47432;48.760;9.178;2022-12-20T01:18:53;14.97;;;8.00;;
6763;SDS011;47432;48.760;9.178;2022-12-20T01:21:22;14.27;;;8.07;;
6763;SDS011;47432;48.760;9.178;2022-12-20T01:23:49;14.77;;;7.27;;
6763;SDS011;47432;48.760;9.178;2022-12-20T01:26:19;16.23;;;9.23;;
6763;SDS011;47432;48.760;9.178;2022-12-20T01:28:51;15.23;;;8.63;;
6763;SDS011;47432;48.760;9.178;2022-12-20T01:31:19;14.43;;;8.20;;
6763;SDS011;47432;48.760;9.178;2022-12-20T01:33:46;18.30;;;9.43;;
6763;SDS011;47432;48.760;9.178;2022-12-20T01:36:14;17.07;;;9.00;;
6763;SDS011;47432;48.760;9.178;2022-12-20T01:38:58;16.00;;;8.90;;
6763;SDS011;47432;48.760;9.178;2022-12-20T01:41:34;17.43;;;8.33;;
6763;SDS011;47432;48.760;9.178;2022-12-20T01:44:50;19.57;;;10.03;;
6763;SDS011;47432;48.760;9.178;2022-12-20T01:46:56;18.27;;;9.83;;
6763;SDS011;47432;48.760;9.178;2022-12-20T01:52:09;18.80;;;11.40;;
6763;SDS011;47432;48.760;9.178;2022-12-20T01:54:55;18.10;;;10.60;;
6763;SDS011;47432;48.760;9.178;2022-12-20T01:57:50;50.13;;;33.27;;
6763;SDS011;47432;48.760;9.178;2022-12-20T02:00:28;18.00;;;10.17;;
6763;SDS011;47432;48.760;9.178;2022-12-20T02:03:00;18.80;;;10.43;;
6763;SDS011;47432;48.760;9.178;2022-12-20T02:05:34;20.30;;;11.63;;
6763;SDS011;47432;48.760;9.178;2022-12-20T02:08:01;21.83;;;12.07;;
6763;SDS011;47432;48.760;9.178;2022-12-20T02:13:17;18.47;;;10.43;;
6763;SDS011;47432;48.760;9.178;2022-12-20T02:15:54;17.40;;;9.50;;
6763;SDS011;47432;48.760;9.178;2022-12-20T02:18:22;20.80;;;10.97;;
6763;SDS011;47432;48.760;9.178;2022-12-20T02:23:59;16.77;;;9.60;;
6763;SDS011;47432;48.760;9.178;2022-12-20T02:27:20;18.93;;;10.40;;
6763;SDS011;47432;48.760;9.178;2022-12-20T02:33:11;21.10;;;12.27;;
6763;SDS011;47432;48.760;9.178;2022-12-20T02:35:38;18.87;;;11.33;;
6763;SDS011;47432;48.760;9.178;2022-12-20T02:41:00;20.67;;;11.53;;
6763;SDS011;47432;48.760;9.178;2022-12-20T02:43:32;24.10;;;12.13;;
6763;SDS011;47432;48.760;9.178;2022-12-20T02:46:18;18.73;;;10.37;;
6763;SDS011;47432;48.760;9.178;2022-12-20T02:48:46;20.97;;;10.83;;
6763;SDS011;47432;48.760;9.178;2022-12-20T02:51:14;16.23;;;8.13;;
6763;SDS011;47432;48.760;9.178;2022-12-20T02:53:42;13.50;;;6.57;;
6763;SDS011;47432;48.760;9.178;2022-12-20T02:56:28;14.00;;;6.80;;
6763;SDS011;47432;48.760;9.178;2022-12-20T02:59:01;12.37;;;5.50;;
6763;SDS011;47432;48.760;9.178;2022-12-20T03:01:39;13.40;;;5.53;;
6763;SDS011;47432;48.760;9.178;2022-12-20T03:04:12;15.57;;;7.20;;
6763;SDS011;47432;48.760;9.178;2022-12-20T03:06:53;12.83;;;6.80;;
6763;SDS011;47432;48.760;9.178;2022-12-20T03:09:33;11.83;;;5.90;;
6763;SDS011;47432;48.760;9.178;2022-12-20T03:12:03;12.17;;;5.43;;
6763;SDS011;47432;48.760;9.178;2022-12-20T03:14:29;10.93;;;4.23;;
6763;SDS011;47432;48.760;9.178;2022-12-20T03:16:55;14.60;;;5.53;;
6763;SDS011;47432;48.760;9.178;2022-12-20T03:19:21;10.60;;;4.37;;
6763;SDS011;47432;48.760;9.178;2022-12-20T03:21:47;10.57;;;4.00;;
6763;SDS011;47432;48.760;9.178;2022-12-20T03:24:12;12.43;;;5.33;;
6763;SDS011;47432;48.760;9.178;2022-12-20T03:26:41;11.27;;;4.53;;
6763;SDS011;47432;48.760;9.178;2022-12-20T03:29:07;14.10;;;4.73;;
6763;SDS011;47432;48.760;9.178;2022-12-20T03:31:36;13.37;;;4.50;;
6763;SDS011;47432;48.760;9.178;2022-12-20T03:34:02;10.43;;;4.50;;
6763;SDS011;47432;48.760;9.178;2022-12-20T03:36:29;10.40;;;4.00;;
6763;SDS011;47432;48.760;9.178;2022-12-20T03:38:55;10.70;;;4.40;;
6763;SDS011;47432;48.760;9.178;2022-12-20T03:41:22;12.07;;;4.60;;
6763;SDS011;47432;48.760;9.178;2022-12-20T03:43:50;11.60;;;4.10;;
6763;SDS011;47432;48.760;9.178;2022-12-20T03:46:17;8.90;;;3.40;;
6763;SDS011;47432;48.760;9.178;2022-12-20T03:48:43;10.50;;;4.00;;
6763;SDS011;47432;48.760;9.178;2022-12-20T03:51:11;11.60;;;4.97;;
6763;SDS011;47432;48.760;9.178;2022-12-20T03:53:37;10.23;;;4.10;;
6763;SDS011;47432;48.760;9.178;2022-12-20T03:56:03;10.20;;;4.20;;
6763;SDS011;47432;48.760;9.178;2022-12-20T03:58:32;10.37;;;3.77;;
6763;SDS011;47432;48.760;9.178;2022-12-20T04:00:57;10.33;;;4.10;;
6763;SDS011;47432;48.760;9.178;2022-12-20T04:03:24;11.10;;;4.77;;
6763;SDS011;47432;48.760;9.178;2022-12-20T04:05:50;10.83;;;4.20;;
6763;SDS011;47432;48.760;9.178;2022-12-20T04:08:15;12.80;;;5.73;;
6763;SDS011;47432;48.760;9.178;2022-12-20T04:10:42;11.33;;;4.13;;
6763;SDS011;47432;48.760;9.178;2022-12-20T04:13:26;12.80;;;5.27;;
6763;SDS011;47432;48.760;9.178;2022-12-20T04:15:52;11.67;;;4.43;;
6763;SDS011;47432;48.760;9.178;2022-12-20T04:18:18;10.00;;;3.90;;
6763;SDS011;47432;48.760;9.178;2022-12-20T04:20:44;12.70;;;4.20;;
6763;SDS011;47432;48.760;9.178;2022-12-20T04:23:10;10.50;;;4.50;;
6763;SDS011;47432;48.760;9.178;2022-12-20T04:25:36;9.90;;;4.33;;
6763;SDS011;47432;48.760;9.178;2022-12-20T04:28:02;11.37;;;4.60;;
6763;SDS011;47432;48.760;9.178;2022-12-20T04:30:30;13.77;;;5.83;;
6763;SDS011;47432;48.760;9.178;2022-12-20T04:32:56;15.10;;;5.67;;
6763;SDS011;47432;48.760;9.178;2022-12-20T04:35:22;11.43;;;5.80;;
6763;SDS011;47432;48.760;9.178;2022-12-20T04:37:50;10.50;;;4.50;;
6763;SDS011;47432;48.760;9.178;2022-12-20T04:40:16;10.70;;;4.30;;
6763;SDS011;47432;48.760;9.178;2022-12-20T04:42:42;10.50;;;4.37;;
6763;SDS011;47432;48.760;9.178;2022-12-20T04:45:07;10.63;;;3.77;;
6763;SDS011;47432;48.760;9.178;2022-12-20T04:47:34;11.57;;;4.50;;
6763;SDS011;47432;48.760;9.178;2022-12-20T04:50:00;11.57;;;4.33;;
6763;SDS011;47432;48.760;9.178;2022-12-20T04:52:29;10.73;;;4.00;;
6763;SDS011;47432;48.760;9.178;2022-12-20T04:55:13;9.70;;;3.90;;
6763;SDS011;47432;48.760;9.178;2022-12-20T04:57:39;14.30;;;4.73;;
6763;SDS011;47432;48.760;9.178;2022-12-20T05:00:10;11.53;;;4.20;;
6763;SDS011;47432;48.760;9.178;2022-12-20T05:02:39;10.57;;;3.97;;
6763;SDS011;47432;48.760;9.178;2022-12-20T05:05:07;11.40;;;4.70;;
6763;SDS011;47432;48.760;9.178;2022-12-20T05:07:36;11.00;;;3.90;;
6763;SDS011;47432;48.760;9.178;2022-12-20T05:10:02;10.33;;;4.43;;
6763;SDS011;47432;48.760;9.178;2022-12-20T05:12:31;9.70;;;3.57;;
6763;SDS011;47432;48.760;9.178;2022-12-20T05:14:59;9.47;;;4.00;;
6763;SDS011;47432;48.760;9.178;2022-12-20T05:17:25;8.87;;;3.20;;
6763;SDS011;47432;48.760;9.178;2022-12-20T05:19:53;11.13;;;4.50;;
6763;SDS011;47432;48.760;9.178;2022-12-20T05:22:19;10.27;;;3.70;;
6763;SDS011;47432;48.760;9.178;2022-12-20T05:25:04;10.20;;;3.70;;
6763;SDS011;47432;48.760;9.178;2022-12-20T05:27:48;10.30;;;4.10;;
6763;SDS011;47432;48.760;9.178;2022-12-20T05:30:14;11.03;;;4.60;;
6763;SDS011;47432;48.760;9.178;2022-12-20T05:32:42;9.50;;;3.73;;
6763;SDS011;47432;48.760;9.178;2022-12-20T05:35:13;9.60;;;3.67;;
6763;SDS011;47432;48.760;9.178;2022-12-20T05:37:41;13.13;;;4.57;;
6763;SDS011;47432;48.760;9.178;2022-12-20T05:40:10;10.97;;;3.87;;
6763;SDS011;47432;48.760;9.178;2022-12-20T05:42:36;8.97;;;3.43;;
6763;SDS011;47432;48.760;9.178;2022-12-20T05:45:05;10.20;;;3.67;;
6763;SDS011;47432;48.760;9.178;2022-12-20T05:47:32;9.60;;;3.70;;
6763;SDS011;47432;48.760;9.178;2022-12-20T05:49:58;8.23;;;3.10;;
6763;SDS011;47432;48.760;9.178;2022-12-20T05:52:24;10.50;;;3.60;;
6763;SDS011;47432;48.760;9.178;2022-12-20T05:54:50;10.60;;;4.20;;
6763;SDS011;47432;48.760;9.178;2022-12-20T05:57:18;10.97;;;3.63;;
6763;SDS011;47432;48.760;9.178;2022-12-20T05:59:44;9.63;;;3.70;;
6763;SDS011;47432;48.760;9.178;2022-12-20T06:02:15;11.50;;;4.40;;
6763;SDS011;47432;48.760;9.178;2022-12-20T06:04:43;9.80;;;3.40;;
6763;SDS011;47432;48.760;9.178;2022-12-20T06:07:09;9.97;;;3.60;;
6763;SDS011;47432;48.760;9.178;2022-12-20T06:09:36;10.20;;;4.20;;
6763;SDS011;47432;48.760;9.178;2022-12-20T06:12:02;9.63;;;3.23;;
6763;SDS011;47432;48.760;9.178;2022-12-20T06:14:28;10.83;;;4.60;;
6763;SDS011;47432;48.760;9.178;2022-12-20T06:16:55;11.70;;;4.70;;
6763;SDS011;47432;48.760;9.178;2022-12-20T06:19:23;11.30;;;4.60;;
6763;SDS011;47432;48.760;9.178;2022-12-20T06:21:48;11.27;;;4.07;;
6763;SDS011;47432;48.760;9.178;2022-12-20T06:24:15;10.33;;;3.93;;
6763;SDS011;47432;48.760;9.178;2022-12-20T06:26:40;12.40;;;5.40;;
6763;SDS011;47432;48.760;9.178;2022-12-20T06:29:06;12.27;;;4.50;;
6763;SDS011;47432;48.760;9.178;2022-12-20T06:31:40;11.83;;;4.47;;
6763;SDS011;47432;48.760;9.178;2022-12-20T06:34:05;10.70;;;4.10;;
6763;SDS011;47432;48.760;9.178;2022-12-20T06:36:31;12.90;;;5.53;;
6763;SDS011;47432;48.760;9.178;2022-12-20T06:38:57;14.03;;;4.50;;
6763;SDS011;47432;48.760;9.178;2022-12-20T06:41:23;11.07;;;4.30;;
6763;SDS011;47432;48.760;9.178;2022-12-20T06:43:51;9.70;;;3.60;;
6763;SDS011;47432;48.760;9.178;2022-12-20T06:46:17;11.73;;;5.57;;
6763;SDS011;47432;48.760;9.178;2022-12-20T06:48:45;10.20;;;4.33;;
6763;SDS011;47432;48.760;9.178;2022-12-20T06:51:11;8.77;;;3.83;;
6763;SDS011;47432;48.760;9.178;2022-12-20T06:53:37;8.93;;;3.70;;
6763;SDS011;47432;48.760;9.178;2022-12-20T06:56:03;10.90;;;4.60;;
6763;SDS011;47432;48.760;9.178;2022-12-20T06:58:32;9.70;;;4.03;;
6763;SDS011;47432;48.760;9.178;2022-12-20T07:01:00;13.60;;;5.43;;
6763;SDS011;47432;48.760;9.178;2022-12-20T07:03:29;10.57;;;4.30;;
6763;SDS011;47432;48.760;9.178;2022-12-20T07:05:56;12.47;;;5.03;;
6763;SDS011;47432;48.760;9.178;2022-12-20T07:08:23;11.03;;;4.60;;
6763;SDS011;47432;48.760;9.178;2022-12-20T07:10:53;11.07;;;4.50;;
6763;SDS011;47432;48.760;9.178;2022-12-20T07:13:21;9.57;;;4.03;;
6763;SDS011;47432;48.760;9.178;2022-12-20T07:15:47;12.30;;;4.40;;
6763;SDS011;47432;48.760;9.178;2022-12-20T07:18:13;11.30;;;4.30;;
6763;SDS011;47432;48.760;9.178;2022-12-20T07:20:42;10.07;;;4.17;;
6763;SDS011;47432;48.760;9.178;2022-12-20T07:23:08;12.33;;;4.47;;
6763;SDS011;47432;48.760;9.178;2022-12-20T07:25:34;10.93;;;4.00;;
6763;SDS011;47432;48.760;9.178;2022-12-20T07:28:03;10.37;;;4.00;;
6763;SDS011;47432;48.760;9.178;2022-12-20T07:30:29;11.10;;;4.17;;
6763;SDS011;47432;48.760;9.178;2022-12-20T07:32:57;13.03;;;4.80;;
6763;SDS011;47432;48.760;9.178;2022-12-20T07:35:23;10.37;;;4.17;;
6763;SDS011;47432;48.760;9.178;2022-12-20T07:37:49;9.40;;;3.63;;
6763;SDS011;47432;48.760;9.178;2022-12-20T07:40:14;9.53;;;3.53;;
6763;SDS011;47432;48.760;9.178;2022-12-20T07:42:43;10.93;;;3.80;;
6763;SDS011;47432;48.760;9.178;2022-12-20T07:45:08;9.83;;;4.07;;
6763;SDS011;47432;48.760;9.178;2022-12-20T07:47:37;9.10;;;3.80;;
6763;SDS011;47432;48.760;9.178;2022-12-20T07:50:07;9.87;;;3.60;;
6763;SDS011;47432;48.760;9.178;2022-12-20T07:52:34;8.87;;;3.40;;
6763;SDS011;47432;48.760;9.178;2022-12-20T07:55:02;10.10;;;3.40;;
6763;SDS011;47432;48.760;9.178;2022-12-20T07:57:49;9.50;;;3.37;;
6763;SDS011;47432;48.760;9.178;2022-12-20T08:00:18;10.37;;;4.40;;
6763;SDS011;47432;48.760;9.178;2022-12-20T08:05:20;10.80;;;3.97;;
6763;SDS011;47432;48.760;9.178;2022-12-20T08:07:48;9.23;;;3.70;;
6763;SDS011;47432;48.760;9.178;2022-12-20T08:10:14;10.37;;;3.57;;
6763;SDS011;47432;48.760;9.178;2022-12-20T08:12:46;9.80;;;3.30;;
6763;SDS011;47432;48.760;9.178;2022-12-20T08:15:13;10.13;;;3.83;;
6763;SDS011;47432;48.760;9.178;2022-12-20T08:17:39;11.07;;;4.37;;
6763;SDS011;47432;48.760;9.178;2022-12-20T08:20:06;10.93;;;3.80;;
6763;SDS011;47432;48.760;9.178;2022-12-20T08:22:32;9.17;;;3.40;;
6763;SDS011;47432;48.760;9.178;2022-12-20T08:24:59;11.83;;;4.10;;
6763;SDS011;47432;48.760;9.178;2022-12-20T08:27:25;11.27;;;4.07;;
6763;SDS011;47432;48.760;9.178;2022-12-20T08:29:51;9.30;;;3.60;;
6763;SDS011;47432;48.760;9.178;2022-12-20T08:32:16;9.40;;;3.43;;
6763;SDS011;47432;48.760;9.178;2022-12-20T08:34:42;10.83;;;3.83;;
6763;SDS011;47432;48.760;9.178;2022-12-20T08:37:14;10.63;;;4.07;;
6763;SDS011;47432;48.760;9.178;2022-12-20T08:39:43;10.30;;;3.53;;
6763;SDS011;47432;48.760;9.178;2022-12-20T08:42:09;10.17;;;3.70;;
6763;SDS011;47432;48.760;9.178;2022-12-20T08:44:38;10.17;;;4.20;;
6763;SDS011;47432;48.760;9.178;2022-12-20T08:47:04;9.90;;;4.07;;
6763;SDS011;47432;48.760;9.178;2022-12-20T08:49:30;12.87;;;3.90;;
6763;SDS011;47432;48.760;9.178;2022-12-20T08:51:56;13.63;;;3.70;;
6763;SDS011;47432;48.760;9.178;2022-12-20T08:54:21;10.43;;;3.60;;
6763;SDS011;47432;48.760;9.178;2022-12-20T08:56:47;9.47;;;3.83;;
6763;SDS011;47432;48.760;9.178;2022-12-20T08:59:13;12.30;;;4.13;;
6763;SDS011;47432;48.760;9.178;2022-12-20T09:01:39;10.63;;;3.90;;
6763;SDS011;47432;48.760;9.178;2022-12-20T09:04:05;9.90;;;3.70;;
6763;SDS011;47432;48.760;9.178;2022-12-20T09:06:33;10.30;;;4.03;;
6763;SDS011;47432;48.760;9.178;2022-12-20T09:08:59;10.37;;;3.50;;
6763;SDS011;47432;48.760;9.178;2022-12-20T09:11:26;11.50;;;4.47;;
6763;SDS011;47432;48.760;9.178;2022-12-20T09:13:55;12.93;;;4.50;;
6763;SDS011;47432;48.760;9.178;2022-12-20T09:16:26;9.80;;;3.73;;
6763;SDS011;47432;48.760;9.178;2022-12-20T09:18:57;11.73;;;3.90;;
6763;SDS011;47432;48.760;9.178;2022-12-20T09:21:25;9.90;;;4.10;;
6763;SDS011;47432;48.760;9.178;2022-12-20T09:23:52;12.00;;;4.60;;
6763;SDS011;47432;48.760;9.178;2022-12-20T09:26:22;10.23;;;4.70;;
6763;SDS011;47432;48.760;9.178;2022-12-20T09:28:49;12.23;;;4.43;;
6763;SDS011;47432;48.760;9.178;2022-12-20T09:31:17;11.13;;;4.03;;
6763;SDS011;47432;48.760;9.178;2022-12-20T09:33:47;10.93;;;4.50;;
6763;SDS011;47432;48.760;9.178;2022-12-20T09:36:16;10.03;;;4.00;;
6763;SDS011;47432;48.760;9.178;2022-12-20T09:38:46;11.03;;;4.40;;
6763;SDS011;47432;48.760;9.178;2022-12-20T09:44:15;9.70;;;3.63;;
6763;SDS011;47432;48.760;9.178;2022-12-20T09:46:59;8.50;;;3.30;;
6763;SDS011;47432;48.760;9.178;2022-12-20T09:49:32;10.30;;;3.60;;
6763;SDS011;47432;48.760;9.178;2022-12-20T10:00:54;11.20;;;4.50;;
6763;SDS011;47432;48.760;9.178;2022-12-20T10:03:27;11.23;;;3.67;;
6763;SDS011;47432;48.760;9.178;2022-12-20T10:05:59;12.30;;;4.33;;
6763;SDS011;47432;48.760;9.178;2022-12-20T10:17:13;9.67;;;3.80;;
6763;SDS011;47432;48.760;9.178;2022-12-20T10:22:36;8.80;;;3.30;;
6763;SDS011;47432;48.760;9.178;2022-12-20T10:25:18;9.73;;;4.30;;
6763;SDS011;47432;48.760;9.178;2022-12-20T10:27:50;10.37;;;3.27;;
6763;SDS011;47432;48.760;9.178;2022-12-20T10:30:20;9.80;;;3.43;;
6763;SDS011;47432;48.760;9.178;2022-12-20T10:32:50;11.37;;;3.53;;
6763;SDS011;47432;48.760;9.178;2022-12-20T10:35:29;10.50;;;3.70;;
6763;SDS011;47432;48.760;9.178;2022-12-20T10:38:03;10.57;;;3.93;;
6763;SDS011;47432;48.760;9.178;2022-12-20T10:43:27;9.77;;;3.40;;
6763;SDS011;47432;48.760;9.178;2022-12-20T10:46:10;9.70;;;3.33;;
6763;SDS011;47432;48.760;9.178;2022-12-20T10:48:38;9.40;;;3.77;;
6763;SDS011;47432;48.760;9.178;2022-12-20T10:53:52;10.17;;;4.27;;
6763;SDS011;47432;48.760;9.178;2022-12-20T10:59:01;9.70;;;3.50;;
6763;SDS011;47432;48.760;9.178;2022-12-20T11:01:52;9.17;;;3.23;;
6763;SDS011;47432;48.760;9.178;2022-12-20T11:04:31;11.37;;;4.80;;
6763;SDS011;47432;48.760;9.178;2022-12-20T11:07:03;9.30;;;3.00;;
6763;SDS011;47432;48.760;9.178;2022-12-20T11:09:52;10.97;;;4.40;;
6763;SDS011;47432;48.760;9.178;2022-12-20T11:12:22;9.17;;;3.30;;
6763;SDS011;47432;48.760;9.178;2022-12-20T11:14:48;11.97;;;4.50;;
6763;SDS011;47432;48.760;9.178;2022-12-20T11:17:27;11.10;;;4.10;;
6763;SDS011;47432;48.760;9.178;2022-12-20T11:45:36;9.37;;;3.00;;
6763;SDS011;47432;48.760;9.178;2022-12-20T11:52:02;10.07;;;3.67;;
6763;SDS011;47432;48.760;9.178;2022-12-20T11:54:40;9.13;;;3.30;;
6763;SDS011;47432;48.760;9.178;2022-12-20T11:57:23;10.97;;;4.20;;
6763;SDS011;47432;48.760;9.178;2022-12-20T11:59:57;9.83;;;3.60;;
6763;SDS011;47432;48.760;9.178;2022-12-20T12:05:04;10.23;;;4.30;;
6763;SDS011;47432;48.760;9.178;2022-12-20T12:07:39;9.53;;;3.50;;
6763;SDS011;47432;48.760;9.178;2022-12-20T12:12:44;10.37;;;4.53;;
6763;SDS011;47432;48.760;9.178;2022-12-20T12:15:17;8.50;;;2.90;;
6763;SDS011;47432;48.760;9.178;2022-12-20T12:17:58;10.00;;;4.10;;
6763;SDS011;47432;48.760;9.178;2022-12-20T12:20:39;10.17;;;3.57;;
6763;SDS011;47432;48.760;9.178;2022-12-20T12:23:23;10.67;;;3.80;;
6763;SDS011;47432;48.760;9.178;2022-12-20T12:25:59;9.67;;;3.30;;
6763;SDS011;47432;48.760;9.178;2022-12-20T12:28:29;9.00;;;2.60;;
6763;SDS011;47432;48.760;9.178;2022-12-20T12:31:15;9.50;;;2.70;;
6763;SDS011;47432;48.760;9.178;2022-12-20T12:45:26;11.53;;;3.33;;
6763;SDS011;47432;48.760;9.178;2022-12-20T12:48:26;8.20;;;2.70;;
6763;SDS011;47432;48.760;9.178;2022-12-20T12:51:14;9.57;;;3.10;;
6763;SDS011;47432;48.760;9.178;2022-12-20T12:53:49;13.20;;;4.80;;
6763;SDS011;47432;48.760;9.178;2022-12-20T12:59:12;11.77;;;3.43;;
6763;SDS011;47432;48.760;9.178;2022-12-20T13:01:52;10.67;;;3.23;;
6763;SDS011;47432;48.760;9.178;2022-12-20T13:17:52;10.80;;;4.60;;
6763;SDS011;47432;48.760;9.178;2022-12-20T13:25:45;13.90;;;4.07;;
6763;SDS011;47432;48.760;9.178;2022-12-20T13:33:39;9.73;;;2.80;;
6763;SDS011;47432;48.760;9.178;2022-12-20T13:41:27;12.37;;;3.87;;
6763;SDS011;47432;48.760;9.178;2022-12-20T13:43:59;9.67;;;3.67;;
6763;SDS011;47432;48.760;9.178;2022-12-20T13:49:26;11.43;;;3.60;;
6763;SDS011;47432;48.760;9.178;2022-12-20T13:54:41;11.00;;;4.00;;
6763;SDS011;47432;48.760;9.178;2022-12-20T13:57:14;9.63;;;2.93;;
6763;SDS011;47432;48.760;9.178;2022-12-20T13:59:57;8.80;;;3.47;;
6763;SDS011;47432;48.760;9.178;2022-12-20T14:02:28;14.30;;;3.70;;
6763;SDS011;47432;48.760;9.178;2022-12-20T14:05:35;10.10;;;3.13;;
6763;SDS011;47432;48.760;9.178;2022-12-20T14:07:59;10.40;;;3.63;;
6763;SDS011;47432;48.760;9.178;2022-12-20T14:10:30;10.50;;;3.70;;
6763;SDS011;47432;48.760;9.178;2022-12-20T14:12:58;11.17;;;4.37;;
6763;SDS011;47432;48.760;9.178;2022-12-20T14:15:31;12.40;;;3.50;;
6763;SDS011;47432;48.760;9.178;2022-12-20T14:18:05;8.80;;;3.00;;
6763;SDS011;47432;48.760;9.178;2022-12-20T14:20:42;12.50;;;3.90;;
6763;SDS011;47432;48.760;9.178;2022-12-20T14:23:10;11.20;;;3.57;;
6763;SDS011;47432;48.760;9.178;2022-12-20T14:25:49;9.93;;;3.50;;
6763;SDS011;47432;48.760;9.178;2022-12-20T14:36:40;13.70;;;4.50;;
6763;SDS011;47432;48.760;9.178;2022-12-20T14:39:20;9.57;;;3.80;;
6763;SDS011;47432;48.760;9.178;2022-12-20T14:42:01;9.43;;;2.87;;
6763;SDS011;47432;48.760;9.178;2022-12-20T14:44:34;11.50;;;4.60;;
6763;SDS011;47432;48.760;9.178;2022-12-20T14:47:01;14.32;;;5.07;;
6763;SDS011;47432;48.760;9.178;2022-12-20T14:49:39;13.13;;;4.10;;
6763;SDS011;47432;48.760;9.178;2022-12-20T14:54:58;13.43;;;5.50;;
6763;SDS011;47432;48.760;9.178;2022-12-20T15:02:58;10.63;;;3.87;;
6763;SDS011;47432;48.760;9.178;2022-12-20T15:05:44;10.33;;;3.03;;
6763;SDS011;47432;48.760;9.178;2022-12-20T15:08:22;11.83;;;4.10;;
6763;SDS011;47432;48.760;9.178;2022-12-20T15:11:00;9.57;;;3.13;;
6763;SDS011;47432;48.760;9.178;2022-12-20T15:13:37;10.93;;;3.53;;
6763;SDS011;47432;48.760;9.178;2022-12-20T15:16:27;10.07;;;2.90;;
6763;SDS011;47432;48.760;9.178;2022-12-20T15:18:59;8.70;;;2.90;;
6763;SDS011;47432;48.760;9.178;2022-12-20T15:21:30;10.00;;;3.77;;
6763;SDS011;47432;48.760;9.178;2022-12-20T15:24:25;10.37;;;3.57;;
6763;SDS011;47432;48.760;9.178;2022-12-20T15:26:53;8.80;;;3.20;;
6763;SDS011;47432;48.760;9.178;2022-12-20T15:29:23;9.30;;;3.10;;
6763;SDS011;47432;48.760;9.178;2022-12-20T15:34:41;10.87;;;3.00;;
6763;SDS011;47432;48.760;9.178;2022-12-20T15:37:10;8.80;;;2.93;;
6763;SDS011;47432;48.760;9.178;2022-12-20T15:39:39;9.93;;;3.20;;
6763;SDS011;47432;48.760;9.178;2022-12-20T15:42:13;9.97;;;3.03;;
6763;SDS011;47432;48.760;9.178;2022-12-20T15:44:41;8.73;;;3.00;;
6763;SDS011;47432;48.760;9.178;2022-12-20T15:47:14;10.63;;;3.03;;
6763;SDS011;47432;48.760;9.178;2022-12-20T15:49:43;11.00;;;3.70;;
6763;SDS011;47432;48.760;9.178;2022-12-20T15:52:19;8.67;;;3.17;;
6763;SDS011;47432;48.760;9.178;2022-12-20T15:54:51;8.23;;;2.70;;
6763;SDS011;47432;48.760;9.178;2022-12-20T15:57:19;10.53;;;3.43;;
6763;SDS011;47432;48.760;9.178;2022-12-20T15:59:45;8.67;;;3.00;;
6763;SDS011;47432;48.760;9.178;2022-12-20T16:02:19;9.63;;;2.83;;
6763;SDS011;47432;48.760;9.178;2022-12-20T16:04:48;11.20;;;3.87;;
6763;SDS011;47432;48.760;9.178;2022-12-20T16:07:15;11.10;;;3.60;;
6763;SDS011;47432;48.760;9.178;2022-12-20T16:09:43;10.53;;;3.30;;
6763;SDS011;47432;48.760;9.178;2022-12-20T16:12:26;9.73;;;3.90;;
6763;SDS011;47432;48.760;9.178;2022-12-20T16:14:54;10.27;;;3.20;;
6763;SDS011;47432;48.760;9.178;2022-12-20T16:17:20;9.70;;;3.27;;
6763;SDS011;47432;48.760;9.178;2022-12-20T16:19:48;10.20;;;3.53;;
6763;SDS011;47432;48.760;9.178;2022-12-20T16:22:15;10.33;;;3.30;;
6763;SDS011;47432;48.760;9.178;2022-12-20T16:24:48;8.20;;;2.60;;
6763;SDS011;47432;48.760;9.178;2022-12-20T16:27:15;10.10;;;3.47;;
6763;SDS011;47432;48.760;9.178;2022-12-20T16:29:41;8.33;;;2.67;;
6763;SDS011;47432;48.760;9.178;2022-12-20T16:32:14;8.93;;;3.07;;
6763;SDS011;47432;48.760;9.178;2022-12-20T16:34:41;11.13;;;3.60;;
6763;SDS011;47432;48.760;9.178;2022-12-20T16:37:07;10.33;;;3.70;;
6763;SDS011;47432;48.760;9.178;2022-12-20T16:39:33;9.73;;;3.13;;
6763;SDS011;47432;48.760;9.178;2022-12-20T16:41:59;8.17;;;2.87;;
6763;SDS011;47432;48.760;9.178;2022-12-20T16:44:25;17.03;;;3.47;;
6763;SDS011;47432;48.760;9.178;2022-12-20T16:46:51;10.27;;;3.30;;
6763;SDS011;47432;48.760;9.178;2022-12-20T16:49:17;9.90;;;3.50;;
6763;SDS011;47432;48.760;9.178;2022-12-20T16:51:44;10.07;;;3.63;;
6763;SDS011;47432;48.760;9.178;2022-12-20T16:54:14;9.90;;;3.07;;
6763;SDS011;47432;48.760;9.178;2022-12-20T16:56:50;10.40;;;3.07;;
6763;SDS011;47432;48.760;9.178;2022-12-20T16:59:21;8.63;;;3.10;;
6763;SDS011;47432;48.760;9.178;2022-12-20T17:01:50;10.17;;;4.30;;
6763;SDS011;47432;48.760;9.178;2022-12-20T17:04:20;9.73;;;4.10;;
6763;SDS011;47432;48.760;9.178;2022-12-20T17:06:50;10.57;;;3.33;;
6763;SDS011;47432;48.760;9.178;2022-12-20T17:09:19;10.70;;;3.70;;
6763;SDS011;47432;48.760;9.178;2022-12-20T17:11:44;8.90;;;3.43;;
6763;SDS011;47432;48.760;9.178;2022-12-20T17:14:12;9.43;;;3.10;;
6763;SDS011;47432;48.760;9.178;2022-12-20T17:16:38;8.97;;;3.40;;
6763;SDS011;47432;48.760;9.178;2022-12-20T17:19:05;12.40;;;3.37;;
6763;SDS011;47432;48.760;9.178;2022-12-20T17:21:37;9.57;;;3.20;;
6763;SDS011;47432;48.760;9.178;2022-12-20T17:24:19;10.10;;;3.33;;
6763;SDS011;47432;48.760;9.178;2022-12-20T17:26:46;9.23;;;3.70;;
6763;SDS011;47432;48.760;9.178;2022-12-20T17:29:13;9.30;;;3.03;;
6763;SDS011;47432;48.760;9.178;2022-12-20T17:31:41;9.93;;;3.23;;
6763;SDS011;47432;48.760;9.178;2022-12-20T17:34:19;8.20;;;2.83;;
6763;SDS011;47432;48.760;9.178;2022-12-20T17:36:47;12.70;;;3.60;;
6763;SDS011;47432;48.760;9.178;2022-12-20T17:39:21;9.63;;;3.60;;
6763;SDS011;47432;48.760;9.178;2022-12-20T17:41:50;9.87;;;3.70;;
6763;SDS011;47432;48.760;9.178;2022-12-20T17:46:51;10.60;;;4.60;;
6763;SDS011;47432;48.760;9.178;2022-12-20T17:49:18;11.10;;;4.67;;